Time;durP1;ratioP1;P1;durP2;ratioP2;P2;SDS_P1;SDS_P2;PMS_P1;PMS_P2;Temp;Humidity;BMP_temperature;BMP_pressure;BME280_temperature;BME280_humidity;BME280_pressure;Samples;Min_cycle;Max_cycle;Signal;HPM_P1;HPM_P2
2021/06/04 00:02:53;;;;;;;;;;;16.50;96.20;;;;;;10573343;28;19943;-65
2021/06/04 00:07:54;;;;;;;;;;;16.40;96.50;;;;;;10565391;28;19924;-64
2021/06/04 00:13:10;;;;;;;;;;;16.40;96.60;;;;;;10574920;28;19931;-64
2021/06/04 00:18:13;;;;;;;;;;;16.30;96.90;;;;;;10577577;28;20007;-64
2021/06/04 00:23:14;;;;;;;;;;;16.20;97.60;;;;;;10573127;28;19931;-64
2021/06/04 00:28:16;;;;;;;;;;;16.20;97.60;;;;;;10559607;28;20009;-64
2021/06/04 00:33:18;;;;;;;;;;;16.30;97.30;;;;;;10566213;28;19928;-64
2021/06/04 00:38:19;;;;;;;;;;;16.30;97.60;;;;;;10577026;28;20091;-64
2021/06/04 00:43:21;;;;;;;;;;;16.20;97.60;;;;;;10563050;28;20383;-65
2021/06/04 00:48:24;;;;;;;;;;;16.30;97.40;;;;;;10567467;28;19928;-65
2021/06/04 00:53:26;;;;;;;;;;;16.40;97.40;;;;;;10575227;28;20398;-65
2021/06/04 00:58:30;;;;;;;;;;;16.40;97.40;;;;;;10568325;28;19930;-64
2021/06/04 01:03:35;;;;;;;;;;;16.30;97.60;;;;;;10579458;28;19963;-65
2021/06/04 01:08:42;;;;;;;;;;;15.70;97.70;;;;;;10572530;28;19928;-66
2021/06/04 01:13:51;;;;;;;;;;;16.20;97.80;;;;;;10577615;28;20022;-65
2021/06/04 01:18:59;;;;;;;;;;;16.60;98.40;;;;;;10570612;28;19986;-65
2021/06/04 01:24:06;;;;;;;;;;;16.00;98.20;;;;;;10570647;28;20030;-65
2021/06/04 01:29:12;;;;;;;;;;;15.90;98.50;;;;;;10577858;28;19935;-65
2021/06/04 01:34:15;;;;;;;;;;;15.30;99.20;;;;;;10576644;28;19934;-65
2021/06/04 01:39:21;;;;;;;;;;;15.50;99.60;;;;;;10570883;28;20388;-65
2021/06/04 01:44:27;;;;;;;;;;;15.40;99.90;;;;;;10560324;28;20298;-64
2021/06/04 01:49:30;;;;;;;;;;;15.30;99.90;;;;;;10566777;28;19928;-65
2021/06/04 01:54:33;;;;;;;;;;;15.30;99.90;;;;;;10571865;28;19953;-65
2021/06/04 01:59:38;;;;;;;;;;;15.10;99.90;;;;;;10577126;28;19930;-65
2021/06/04 02:04:40;;;;;;;;;;;12.50;99.90;;;;;;10572437;28;19924;-65
2021/06/04 02:09:42;;;;;;;;;;;15.00;99.90;;;;;;10564408;28;19928;-64
2021/06/04 02:14:46;;;;;;;;;;;14.90;99.90;;;;;;10569454;28;19959;-64
2021/06/04 02:19:53;;;;;;;;;;;14.90;99.90;;;;;;10578275;28;20383;-65
2021/06/04 02:24:57;;;;;;;;;;;14.90;99.90;;;;;;10569067;28;20342;-64
2021/06/04 02:30:08;;;;;;;;;;;14.80;99.90;;;;;;10577887;28;20010;-65
2021/06/04 02:35:13;;;;;;;;;;;14.90;99.90;;;;;;10576736;28;19930;-64
2021/06/04 02:40:17;;;;;;;;;;;14.80;99.90;;;;;;10570643;28;20373;-65
2021/06/04 02:45:23;;;;;;;;;;;14.70;99.90;;;;;;10560111;28;20002;-65
2021/06/04 02:50:25;;;;;;;;;;;14.90;99.90;;;;;;10562155;28;20404;-64
2021/06/04 02:55:30;;;;;;;;;;;15.00;99.90;;;;;;10565704;28;20325;-64
2021/06/04 03:00:38;;;;;;;;;;;15.10;99.90;;;;;;10577145;28;20014;-65
2021/06/04 03:05:39;;;;;;;;;;;15.50;99.90;;;;;;10577865;28;19924;-64
2021/06/04 03:10:42;;;;;;;;;;;15.20;99.90;;;;;;10575932;28;19924;-64
2021/06/04 03:15:47;;;;;;;;;;;15.20;99.90;;;;;;10579415;28;19978;-64
2021/06/04 03:20:49;;;;;;;;;;;15.30;99.90;;;;;;10583480;28;19924;-64
2021/06/04 03:25:51;;;;;;;;;;;15.30;99.90;;;;;;10573244;28;19923;-63
2021/06/04 03:30:54;;;;;;;;;;;15.30;99.90;;;;;;10577618;28;19924;-64
2021/06/04 03:35:55;;;;;;;;;;;15.40;99.90;;;;;;10575948;28;20335;-64
2021/06/04 03:40:56;;;;;;;;;;;15.40;99.90;;;;;;10573036;28;20265;-64
2021/06/04 03:45:59;;;;;;;;;;;15.40;99.90;;;;;;10571597;28;20014;-63
2021/06/04 03:51:04;;;;;;;;;;;15.40;99.90;;;;;;10567250;28;20026;-64
2021/06/04 03:56:05;;;;;;;;;;;13.30;99.90;;;;;;10574455;28;19972;-64
2021/06/04 04:01:09;;;;;;;;;;;15.60;99.90;;;;;;10572046;28;19935;-65
2021/06/04 04:06:10;;;;;;;;;;;15.70;99.90;;;;;;10582845;28;20010;-65
2021/06/04 04:11:12;;;;;;;;;;;16.00;99.90;;;;;;10576029;28;20383;-65
2021/06/04 04:16:14;;;;;;;;;;;15.80;99.90;;;;;;10578666;28;19924;-65
2021/06/04 04:21:16;;;;;;;;;;;16.00;99.90;;;;;;10569822;28;20011;-65
2021/06/04 04:26:18;;;;;;;;;;;17.00;99.90;;;;;;10577514;28;19923;-65
2021/06/04 04:31:24;;;;;;;;;;;18.50;98.00;;;;;;10564357;28;20429;-65
2021/06/04 04:36:27;;;;;;;;;;;19.90;94.50;;;;;;10569740;28;19950;-66
2021/06/04 04:41:28;;;;;;;;;;;20.80;91.40;;;;;;10566614;28;20023;-66
2021/06/04 04:46:31;;;;;;;;;;;19.10;94.60;;;;;;10576622;28;19931;-66
2021/06/04 04:51:33;;;;;;;;;;;16.30;96.90;;;;;;10580531;28;20362;-65
2021/06/04 04:56:34;;;;;;;;;;;17.80;98.70;;;;;;10575736;28;19927;-65
2021/06/04 05:01:37;;;;;;;;;;;17.80;99.00;;;;;;10567355;27;19954;-60
2021/06/04 05:06:38;;;;;;;;;;;17.90;99.20;;;;;;10573530;28;20294;-60
2021/06/04 05:11:39;;;;;;;;;;;18.10;99.60;;;;;;10559349;28;19963;-61
2021/06/04 05:16:42;;;;;;;;;;;19.00;98.60;;;;;;10572411;28;20371;-60
2021/06/04 05:21:43;;;;;;;;;;;19.20;97.40;;;;;;10560698;28;20332;-60
2021/06/04 05:26:44;;;;;;;;;;;19.20;97.50;;;;;;10560964;28;19974;-60
2021/06/04 05:31:47;;;;;;;;;;;19.10;97.60;;;;;;10553696;28;19924;-60
2021/06/04 05:36:48;;;;;;;;;;;19.00;98.10;;;;;;10565899;28;20026;-60
2021/06/04 05:41:50;;;;;;;;;;;19.20;98.20;;;;;;10570009;28;19932;-60
2021/06/04 05:46:54;;;;;;;;;;;19.40;97.80;;;;;;10555253;28;20026;-59
2021/06/04 05:51:58;;;;;;;;;;;19.80;97.30;;;;;;10555382;27;19949;-60
2021/06/04 05:56:59;;;;;;;;;;;20.40;96.40;;;;;;10547525;28;19970;-61
2021/06/04 06:02:03;;;;;;;;;;;22.00;93.80;;;;;;10560248;28;19938;-61
2021/06/04 06:07:05;;;;;;;;;;;24.10;87.20;;;;;;10574894;27;19932;-60
2021/06/04 06:12:12;;;;;;;;;;;23.70;87.90;;;;;;10578066;27;19934;-61
2021/06/04 06:17:15;;;;;;;;;;;23.80;87.90;;;;;;10564107;28;19977;-61
2021/06/04 06:22:16;;;;;;;;;;;24.20;86.90;;;;;;10566382;28;19931;-62
2021/06/04 06:27:17;;;;;;;;;;;25.40;83.30;;;;;;10558927;28;20486;-61
2021/06/04 06:32:21;;;;;;;;;;;28.50;71.60;;;;;;10570414;28;20018;-63
2021/06/04 06:37:22;;;;;;;;;;;31.90;56.90;;;;;;10567209;28;19928;-62
2021/06/04 06:42:23;;;;;;;;;;;34.40;48.50;;;;;;10560141;28;19924;-62
2021/06/04 06:47:25;;;;;;;;;;;35.40;46.20;;;;;;10570060;28;20031;-62
2021/06/04 06:52:26;;;;;;;;;;;36.50;43.60;;;;;;10577281;28;19931;-62
2021/06/04 06:57:28;;;;;;;;;;;38.10;41.70;;;;;;10576172;28;19996;-62
2021/06/04 07:02:30;;;;;;;;;;;38.00;41.10;;;;;;10573495;28;19924;-62
2021/06/04 07:07:31;;;;;;;;;;;38.20;40.50;;;;;;10583565;28;20045;-63
2021/06/04 07:12:32;;;;;;;;;;;38.00;40.50;;;;;;10588578;27;20367;-63
2021/06/04 07:17:35;;;;;;;;;;;36.10;42.50;;;;;;10574733;28;19924;-62
2021/06/04 07:22:36;;;;;;;;;;;38.20;42.70;;;;;;10561676;28;19967;-62
2021/06/04 07:27:37;;;;;;;;;;;37.80;39.20;;;;;;10569932;28;19927;-62
2021/06/04 07:32:41;;;;;;;;;;;38.70;38.00;;;;;;10569485;28;20358;-63
2021/06/04 07:37:42;;;;;;;;;;;39.10;38.20;;;;;;10577111;28;20022;-62
2021/06/04 07:42:43;;;;;;;;;;;39.30;36.60;;;;;;10563912;28;19923;-62
2021/06/04 07:47:46;;;;;;;;;;;39.30;36.70;;;;;;10578684;28;19934;-63
2021/06/04 07:52:47;;;;;;;;;;;39.50;36.60;;;;;;10570908;28;19942;-61
2021/06/04 07:57:48;;;;;;;;;;;38.80;35.30;;;;;;10578566;28;19930;-67
2021/06/04 08:02:51;;;;;;;;;;;37.90;35.90;;;;;;10581694;28;19974;-67
2021/06/04 08:07:53;;;;;;;;;;;37.60;36.30;;;;;;10568343;27;19964;-67
2021/06/04 08:12:54;;;;;;;;;;;37.20;36.50;;;;;;10600739;27;20277;-67
2021/06/04 08:17:56;;;;;;;;;;;36.80;36.80;;;;;;10576108;28;19928;-68
2021/06/04 08:22:59;;;;;;;;;;;37.00;36.20;;;;;;10565660;28;19923;-68
2021/06/04 08:28:00;;;;;;;;;;;36.80;36.20;;;;;;10574247;28;20019;-68
2021/06/04 08:33:03;;;;;;;;;;;36.00;36.90;;;;;;10576815;28;19928;-68
2021/06/04 08:38:05;;;;;;;;;;;35.70;37.20;;;;;;10581048;28;20423;-68
2021/06/04 08:43:19;;;;;;;;;;;35.60;37.70;;;;;;10578094;28;20352;-67
2021/06/04 08:48:32;;;;;;;;;;;35.30;37.80;;;;;;10575069;28;20382;-68
2021/06/04 08:53:38;;;;;;;;;;;35.10;37.60;;;;;;10575507;28;19924;-67
2021/06/04 08:58:44;;;;;;;;;;;34.80;38.30;;;;;;10554997;28;20398;-67
2021/06/04 09:03:48;;;;;;;;;;;34.60;39.00;;;;;;10557436;28;19928;-67
2021/06/04 09:08:49;;;;;;;;;;;34.40;38.50;;;;;;10580045;27;20046;-68
2021/06/04 09:13:50;;;;;;;;;;;33.80;38.80;;;;;;10577249;27;19924;-67
2021/06/04 09:18:56;;;;;;;;;;;34.50;39.50;;;;;;10570168;28;19957;-68
2021/06/04 09:23:58;;;;;;;;;;;34.40;38.60;;;;;;10555537;28;19970;-69
2021/06/04 09:29:13;;;;;;;;;;;34.00;37.20;;;;;;10562046;28;20455;-68
2021/06/04 09:34:18;;;;;;;;;;;33.80;38.00;;;;;;10569735;28;20018;-68
2021/06/04 09:39:27;;;;;;;;;;;34.00;37.90;;;;;;10569148;28;20317;-68
2021/06/04 09:44:28;;;;;;;;;;;34.10;37.80;;;;;;10573686;28;20406;-67
2021/06/04 09:49:34;;;;;;;;;;;34.00;38.00;;;;;;10559279;28;19924;-67
2021/06/04 09:54:35;;;;;;;;;;;34.10;37.90;;;;;;10571355;28;20042;-67
2021/06/04 09:59:37;;;;;;;;;;;34.00;38.00;;;;;;10564866;28;20402;-68
2021/06/04 10:04:39;;;;;;;;;;;33.70;38.50;;;;;;10573303;28;19946;-68
2021/06/04 10:09:43;;;;;;;;;;;34.20;38.50;;;;;;10541789;27;22896;-69
2021/06/04 10:14:54;;;;;;;;;;;34.60;38.20;;;;;;10555442;27;19969;-66
2021/06/04 10:19:56;;;;;;;;;;;34.90;37.00;;;;;;10543321;28;19928;-67
2021/06/04 10:25:12;;;;;;;;;;;34.40;38.00;;;;;;10554960;28;19934;-68
2021/06/04 10:30:14;;;;;;;;;;;34.80;38.10;;;;;;10573828;28;20010;-67
2021/06/04 10:35:20;;;;;;;;;;;34.60;38.10;;;;;;10554558;28;20346;-68
2021/06/04 10:40:26;;;;;;;;;;;34.30;37.30;;;;;;10537327;28;20007;-67
2021/06/04 10:45:29;;;;;;;;;;;35.20;37.30;;;;;;10538809;28;19968;-68
2021/06/04 10:50:33;;;;;;;;;;;35.40;37.00;;;;;;10566041;28;20372;-67
2021/06/04 10:55:36;;;;;;;;;;;35.50;37.50;;;;;;10555762;28;19931;-69
2021/06/04 11:00:41;;;;;;;;;;;35.50;37.30;;;;;;10548667;28;19924;-68
2021/06/04 11:05:46;;;;;;;;;;;35.70;36.00;;;;;;10563707;28;19927;-68
2021/06/04 11:10:52;;;;;;;;;;;35.10;36.10;;;;;;10578683;28;20374;-68
2021/06/04 11:15:57;;;;;;;;;;;35.20;36.40;;;;;;10563390;28;19971;-69
2021/06/04 11:21:01;;;;;;;;;;;35.00;37.10;;;;;;10567882;28;20501;-67
2021/06/04 11:26:06;;;;;;;;;;;35.00;37.10;;;;;;10553734;28;19927;-68
2021/06/04 11:31:11;;;;;;;;;;;35.00;37.10;;;;;;10569550;28;20006;-67
2021/06/04 11:36:16;;;;;;;;;;;35.00;37.10;;;;;;10579750;27;20019;-66
2021/06/04 11:41:20;;;;;;;;;;;34.60;36.50;;;;;;10582805;28;19931;-66
2021/06/04 11:46:23;;;;;;;;;;;34.60;37.30;;;;;;10581939;27;20371;-69
2021/06/04 11:51:29;;;;;;;;;;;34.20;37.60;;;;;;10574273;27;19973;-71
2021/06/04 11:56:43;;;;;;;;;;;34.10;37.80;;;;;;10573676;28;20191;-69
2021/06/04 12:01:46;;;;;;;;;;;33.60;38.30;;;;;;10568295;28;19928;-67
2021/06/04 12:06:50;;;;;;;;;;;33.50;39.30;;;;;;10578468;28;19924;-68
2021/06/04 12:11:51;;;;;;;;;;;32.90;39.20;;;;;;10582574;27;19931;-67
2021/06/04 12:17:11;;;;;;;;;;;33.20;39.60;;;;;;10577717;28;20034;-69
2021/06/04 12:22:27;;;;;;;;;;;33.00;39.50;;;;;;10577144;27;20459;-69
2021/06/04 12:27:46;;;;;;;;;;;31.10;39.10;;;;;;10574833;28;20261;-69
2021/06/04 12:33:00;;;;;;;;;;;32.80;40.50;;;;;;10569776;28;20026;-66
2021/06/04 12:38:16;;;;;;;;;;;32.80;40.40;;;;;;10556865;28;19981;-66
2021/06/04 12:43:20;;;;;;;;;;;33.00;40.10;;;;;;10568893;27;20024;-70
2021/06/04 12:48:23;;;;;;;;;;;32.80;40.60;;;;;;10566568;28;19928;-68
2021/06/04 12:53:26;;;;;;;;;;;32.70;40.50;;;;;;10575355;28;20383;-67
2021/06/04 12:58:30;;;;;;;;;;;32.30;41.50;;;;;;10571769;28;19932;-68
2021/06/04 13:03:33;;;;;;;;;;;32.30;42.20;;;;;;10551552;28;19928;-68
2021/06/04 13:08:36;;;;;;;;;;;32.10;42.50;;;;;;10571205;27;19931;-69
2021/06/04 13:13:40;;;;;;;;;;;31.70;42.90;;;;;;10580385;27;20019;-68
2021/06/04 13:18:42;;;;;;;;;;;29.70;43.00;;;;;;10562836;28;19931;-67
2021/06/04 13:23:56;;;;;;;;;;;31.00;44.10;;;;;;10560523;28;19930;-66
2021/06/04 13:29:03;;;;;;;;;;;30.90;45.30;;;;;;10564285;28;19999;-68
2021/06/04 13:34:08;;;;;;;;;;;31.00;44.80;;;;;;10572360;28;20344;-68
2021/06/04 13:39:11;;;;;;;;;;;30.60;45.90;;;;;;10564763;28;19988;-67
2021/06/04 13:44:17;;;;;;;;;;;30.20;46.40;;;;;;10562900;28;20015;-66
2021/06/04 13:49:29;;;;;;;;;;;29.90;46.20;;;;;;10563515;28;20385;-68
2021/06/04 13:54:32;;;;;;;;;;;29.70;46.60;;;;;;10569411;28;19963;-67
2021/06/04 13:59:35;;;;;;;;;;;29.30;46.70;;;;;;10565574;28;20380;-72
2021/06/04 14:04:38;;;;;;;;;;;29.10;46.90;;;;;;10568100;27;20404;-70
2021/06/04 14:09:39;;;;;;;;;;;28.00;44.90;;;;;;10569246;27;19935;-73
2021/06/04 14:14:43;;;;;;;;;;;29.70;46.20;;;;;;10571963;27;19974;-71
2021/06/04 14:19:53;;;;;;;;;;;29.50;46.50;;;;;;10564762;28;20018;-71
2021/06/04 14:24:54;;;;;;;;;;;29.00;46.50;;;;;;10556471;28;20038;-74
2021/06/04 14:29:58;;;;;;;;;;;26.20;45.90;;;;;;10571281;28;20014;-73
2021/06/04 14:35:18;;;;;;;;;;;28.30;47.80;;;;;;10574291;28;20462;-70
2021/06/04 14:40:20;;;;;;;;;;;27.60;48.70;;;;;;10553797;28;19992;-70
2021/06/04 14:45:24;;;;;;;;;;;27.60;48.90;;;;;;10542697;28;19958;-70
2021/06/04 14:50:27;;;;;;;;;;;27.40;48.90;;;;;;10560149;28;19927;-70
2021/06/04 14:55:29;;;;;;;;;;;27.10;49.40;;;;;;10555019;28;19928;-71
2021/06/04 15:00:32;;;;;;;;;;;26.80;50.90;;;;;;10571765;28;20002;-71
2021/06/04 15:05:34;;;;;;;;;;;25.90;49.80;;;;;;10572154;28;19984;-75
2021/06/04 15:10:35;;;;;;;;;;;26.40;51.30;;;;;;10581676;27;19927;-69
2021/06/04 15:15:37;;;;;;;;;;;26.40;51.40;;;;;;10547568;27;19932;-74
2021/06/04 15:20:39;;;;;;;;;;;26.10;51.70;;;;;;10576687;28;19924;-73
2021/06/04 15:25:41;;;;;;;;;;;25.70;52.80;;;;;;10576354;27;20404;-74
2021/06/04 15:30:44;;;;;;;;;;;25.50;54.00;;;;;;10561780;28;20404;-74
2021/06/04 15:35:45;;;;;;;;;;;25.60;53.40;;;;;;10567558;28;19924;-74
2021/06/04 15:40:46;;;;;;;;;;;25.30;54.40;;;;;;10574699;28;20022;-74
2021/06/04 15:45:50;;;;;;;;;;;24.90;55.80;;;;;;10569119;27;19923;-73
2021/06/04 15:50:52;;;;;;;;;;;24.60;57.70;;;;;;10557295;28;19924;-79
2021/06/04 15:55:55;;;;;;;;;;;24.40;59.40;;;;;;10577115;28;19975;-79
2021/06/04 16:00:58;;;;;;;;;;;24.10;60.60;;;;;;10561261;28;19931;-77
2021/06/04 16:06:01;;;;;;;;;;;23.90;62.30;;;;;;10573871;28;19949;-76
2021/06/04 16:11:03;;;;;;;;;;;23.70;63.60;;;;;;10581584;27;20024;-77
2021/06/04 16:16:06;;;;;;;;;;;21.20;64.30;;;;;;10574336;27;19931;-77
2021/06/04 16:21:07;;;;;;;;;;;22.40;67.00;;;;;;10559339;28;20299;-76
2021/06/04 16:26:11;;;;;;;;;;;22.70;69.50;;;;;;10554120;27;20364;-74
2021/06/04 16:31:14;;;;;;;;;;;22.70;70.70;;;;;;10563663;28;20490;-74
2021/06/04 16:36:16;;;;;;;;;;;22.60;72.70;;;;;;10570786;28;20386;-73
2021/06/04 16:41:17;;;;;;;;;;;23.00;74.20;;;;;;10570109;28;20014;-73
2021/06/04 16:46:19;;;;;;;;;;;20.40;73.50;;;;;;10567303;28;19979;-74
2021/06/04 16:51:20;;;;;;;;;;;22.70;76.00;;;;;;10556548;28;20040;-74
2021/06/04 16:56:22;;;;;;;;;;;22.80;76.80;;;;;;10565598;28;19927;-72
2021/06/04 17:01:26;;;;;;;;;;;22.80;77.10;;;;;;10565560;28;19932;-69
2021/06/04 17:06:28;;;;;;;;;;;22.90;77.80;;;;;;10568947;28;19974;-69
2021/06/04 17:11:29;;;;;;;;;;;22.80;78.70;;;;;;10562080;27;19931;-68
2021/06/04 17:16:32;;;;;;;;;;;22.90;78.40;;;;;;10562046;28;20415;-69
2021/06/04 17:21:33;;;;;;;;;;;22.80;78.20;;;;;;10568254;28;19923;-67
2021/06/04 17:26:34;;;;;;;;;;;22.80;79.10;;;;;;10564352;28;20359;-68
2021/06/04 17:31:38;;;;;;;;;;;22.70;79.80;;;;;;10556256;28;20436;-68
2021/06/04 17:36:41;;;;;;;;;;;22.70;80.90;;;;;;10574748;28;20011;-69
2021/06/04 17:41:42;;;;;;;;;;;22.70;81.20;;;;;;10558889;28;19930;-68
2021/06/04 17:46:46;;;;;;;;;;;22.80;80.50;;;;;;10554278;28;19928;-66
2021/06/04 17:51:50;;;;;;;;;;;22.70;81.10;;;;;;10549344;28;19932;-65
2021/06/04 17:56:51;;;;;;;;;;;22.50;81.60;;;;;;10563927;28;19950;-63
2021/06/04 18:01:53;;;;;;;;;;;22.40;82.20;;;;;;10542836;28;19928;-62
2021/06/04 18:06:54;;;;;;;;;;;22.30;82.80;;;;;;10563531;28;20611;-64
2021/06/04 18:11:56;;;;;;;;;;;22.20;83.50;;;;;;10567632;27;19949;-65
2021/06/04 18:16:59;;;;;;;;;;;22.00;84.00;;;;;;10559643;28;19931;-65
2021/06/04 18:22:00;;;;;;;;;;;22.10;84.50;;;;;;10557155;28;20673;-63
2021/06/04 18:27:01;;;;;;;;;;;21.00;83.80;;;;;;10562313;28;20023;-62
2021/06/04 18:32:04;;;;;;;;;;;24.40;86.20;;;;;;10555948;28;19928;-64
2021/06/04 18:37:05;;;;;;;;;;;22.00;85.10;;;;;;10566004;28;19935;-63
2021/06/04 18:42:07;;;;;;;;;;;21.80;85.30;;;;;;10556934;28;20010;-64
2021/06/04 18:47:10;;;;;;;;;;;21.80;86.30;;;;;;10563273;28;19924;-65
2021/06/04 18:52:11;;;;;;;;;;;21.80;86.10;;;;;;10559693;28;19993;-70
2021/06/04 18:57:12;;;;;;;;;;;21.70;86.30;;;;;;10550920;28;19924;-73
2021/06/04 19:02:15;;;;;;;;;;;21.60;86.60;;;;;;10550322;28;19931;-70
2021/06/04 19:07:16;;;;;;;;;;;22.90;87.90;;;;;;10585797;28;19928;-70
2021/06/04 19:12:17;;;;;;;;;;;21.40;87.30;;;;;;10566145;28;20026;-69
2021/06/04 19:17:20;;;;;;;;;;;21.30;87.50;;;;;;10544246;28;19964;-70
2021/06/04 19:22:22;;;;;;;;;;;20.30;87.10;;;;;;10567064;28;19953;-70
2021/06/04 19:27:23;;;;;;;;;;;21.00;88.10;;;;;;10571084;28;19932;-70
2021/06/04 19:32:26;;;;;;;;;;;21.00;88.60;;;;;;10570180;28;20014;-70
2021/06/04 19:37:27;;;;;;;;;;;21.00;88.60;;;;;;10558544;28;19931;-71
2021/06/04 19:42:28;;;;;;;;;;;20.90;89.10;;;;;;10562300;28;19959;-71
2021/06/04 19:47:30;;;;;;;;;;;20.80;89.60;;;;;;10556270;28;20057;-71
2021/06/04 19:52:31;;;;;;;;;;;20.90;90.30;;;;;;10553535;28;20967;-72
2021/06/04 19:57:33;;;;;;;;;;;20.80;90.20;;;;;;10571773;28;19932;-70
2021/06/04 20:02:35;;;;;;;;;;;20.80;90.60;;;;;;10552650;28;19924;-70
2021/06/04 20:07:36;;;;;;;;;;;20.80;90.80;;;;;;10572330;28;19928;-72
2021/06/04 20:12:39;;;;;;;;;;;19.30;90.90;;;;;;10568854;27;20023;-69
2021/06/04 20:17:41;;;;;;;;;;;20.60;91.50;;;;;;10548613;28;20430;-71
2021/06/04 20:22:42;;;;;;;;;;;20.70;91.50;;;;;;10565726;28;20006;-70
2021/06/04 20:27:43;;;;;;;;;;;20.60;90.60;;;;;;10562072;28;19924;-70
2021/06/04 20:32:46;;;;;;;;;;;20.50;89.90;;;;;;10571226;28;19928;-69
2021/06/04 20:37:47;;;;;;;;;;;20.40;91.90;;;;;;10564290;28;19928;-70
2021/06/04 20:42:48;;;;;;;;;;;20.00;93.30;;;;;;10553125;28;19925;-71
2021/06/04 20:47:51;;;;;;;;;;;19.80;94.80;;;;;;10570223;28;19955;-71
2021/06/04 20:52:52;;;;;;;;;;;19.30;96.20;;;;;;10562628;28;20019;-70
2021/06/04 20:57:53;;;;;;;;;;;18.80;97.20;;;;;;10540741;28;20501;-71
2021/06/04 21:02:56;;;;;;;;;;;18.30;98.50;;;;;;10562290;28;19928;-70
2021/06/04 21:07:58;;;;;;;;;;;18.10;99.60;;;;;;10556308;28;19930;-71
2021/06/04 21:12:59;;;;;;;;;;;17.90;99.90;;;;;;10565160;27;19965;-70
2021/06/04 21:18:02;;;;;;;;;;;17.80;99.90;;;;;;10556623;28;19936;-69
2021/06/04 21:23:05;;;;;;;;;;;16.80;99.90;;;;;;10571947;28;19977;-69
2021/06/04 21:28:06;;;;;;;;;;;17.80;99.90;;;;;;10558048;28;20070;-71
2021/06/04 21:33:09;;;;;;;;;;;17.80;99.90;;;;;;10554094;28;19976;-70
2021/06/04 21:38:11;;;;;;;;;;;17.70;99.90;;;;;;10551655;27;19932;-70
2021/06/04 21:43:13;;;;;;;;;;;17.50;99.90;;;;;;10555601;28;19928;-70
2021/06/04 21:48:15;;;;;;;;;;;17.50;99.90;;;;;;10551255;28;19931;-70
2021/06/04 21:53:17;;;;;;;;;;;17.40;99.90;;;;;;10566822;28;19982;-70
2021/06/04 21:58:19;;;;;;;;;;;17.30;99.90;;;;;;10561515;28;20384;-70
2021/06/04 22:03:23;;;;;;;;;;;15.10;99.90;;;;;;10564320;27;20010;-71
2021/06/04 22:08:24;;;;;;;;;;;17.20;99.90;;;;;;10567578;28;19964;-70
2021/06/04 22:13:25;;;;;;;;;;;17.20;99.90;;;;;;10566788;28;20413;-70
2021/06/04 22:18:28;;;;;;;;;;;17.20;99.90;;;;;;10569532;28;19935;-70
2021/06/04 22:23:31;;;;;;;;;;;17.10;99.90;;;;;;10562314;28;19947;-69
2021/06/04 22:28:33;;;;;;;;;;;17.10;99.90;;;;;;10566575;28;19924;-69
2021/06/04 22:33:37;;;;;;;;;;;16.60;99.90;;;;;;10562154;28;19934;-69
2021/06/04 22:38:38;;;;;;;;;;;16.90;99.90;;;;;;10561716;28;20000;-69
2021/06/04 22:43:39;;;;;;;;;;;16.70;99.90;;;;;;10559527;28;19924;-76
2021/06/04 22:48:42;;;;;;;;;;;16.00;99.90;;;;;;10565744;28;20563;-74
2021/06/04 22:53:44;;;;;;;;;;;15.70;99.90;;;;;;10557290;28;20667;-73
2021/06/04 22:58:45;;;;;;;;;;;15.40;99.90;;;;;;10549981;28;20022;-72
2021/06/04 23:03:48;;;;;;;;;;;15.10;99.90;;;;;;10562933;28;20031;-72
2021/06/04 23:08:50;;;;;;;;;;;14.90;99.90;;;;;;10551606;28;20566;-72
2021/06/04 23:13:51;;;;;;;;;;;15.00;99.90;;;;;;10551672;28;20021;-71
2021/06/04 23:18:54;;;;;;;;;;;14.50;99.90;;;;;;10557583;28;20014;-72
2021/06/04 23:23:56;;;;;;;;;;;14.40;99.90;;;;;;10547540;28;19935;-71
2021/06/04 23:28:58;;;;;;;;;;;14.30;99.90;;;;;;10565066;28;19950;-71
2021/06/04 23:34:02;;;;;;;;;;;14.30;99.90;;;;;;10568311;28;20018;-73
2021/06/04 23:39:05;;;;;;;;;;;14.30;99.90;;;;;;10554522;28;20005;-72
2021/06/04 23:44:07;;;;;;;;;;;14.30;99.90;;;;;;10567051;28;20010;-71
2021/06/04 23:49:10;;;;;;;;;;;14.30;99.90;;;;;;10565391;27;19950;-72
2021/06/04 23:54:11;;;;;;;;;;;14.30;99.90;;;;;;10565126;28;19968;-72
2021/06/04 23:59:12;;;;;;;;;;;14.30;99.90;;;;;;10566590;28;19935;-71
